createdAt,value
2023-09-24T08:50:32.642Z,6.10
2023-09-24T08:53:00.987Z,5.40
2023-09-24T08:55:28.565Z,3.50
2023-09-24T08:57:56.878Z,4.20
2023-09-24T09:00:24.568Z,3.90
2023-09-24T09:02:52.297Z,3.50
2023-09-24T09:05:25.678Z,4.70
2023-09-24T09:07:57.480Z,3.40
2023-09-24T09:10:33.244Z,4.30
2023-09-24T09:13:07.865Z,5.10
2023-09-24T09:15:36.725Z,3.80
2023-09-24T09:18:04.604Z,4.40
2023-09-24T09:20:45.621Z,4.80
2023-09-24T09:23:14.155Z,4.20
2023-09-24T09:26:00.699Z,3.90
2023-09-24T09:28:33.480Z,3.40
2023-09-24T09:31:12.503Z,3.20
2023-09-24T09:33:45.072Z,5.00
2023-09-24T09:38:51.940Z,3.60
2023-09-24T09:41:20.157Z,4.30
2023-09-24T09:43:48.524Z,4.60
2023-09-24T09:46:26.009Z,4.20
2023-09-24T09:48:57.987Z,5.20
2023-09-24T09:51:26.772Z,3.10
2023-09-24T09:53:55.547Z,3.60
2023-09-24T09:56:26.818Z,4.20
2023-09-24T09:58:56.710Z,3.20
2023-09-24T10:01:24.400Z,3.60
2023-09-24T10:03:52.418Z,3.50
2023-09-24T10:06:20.312Z,5.20
2023-09-24T10:08:51.265Z,4.90
2023-09-24T10:11:45.225Z,3.10
2023-09-24T10:14:12.816Z,4.00
2023-09-24T10:16:40.693Z,2.70
2023-09-24T10:19:12.625Z,3.40
2023-09-24T10:21:43.496Z,3.60
2023-09-24T10:24:11.246Z,3.40
2023-09-24T10:26:49.206Z,3.50
2023-09-24T10:29:20.548Z,3.50
2023-09-24T10:32:07.018Z,3.10
2023-09-24T10:34:53.124Z,4.40
2023-09-24T10:37:24.349Z,3.70
2023-09-24T10:40:09.268Z,3.20
2023-09-24T10:45:10.866Z,3.90
2023-09-24T10:47:47.866Z,5.00
2023-09-24T10:50:22.254Z,3.20
2023-09-24T10:52:51.004Z,3.60
2023-09-24T10:55:41.059Z,3.50
2023-09-24T10:58:15.716Z,4.40
2023-09-24T11:00:44.803Z,3.40
2023-09-24T11:03:15.022Z,3.80
2023-09-24T11:05:43.085Z,4.10
2023-09-24T11:08:14.344Z,3.20
2023-09-24T11:10:42.074Z,3.90
2023-09-24T11:13:10.326Z,3.40
2023-09-24T11:15:39.552Z,3.80
2023-09-24T11:18:07.708Z,2.80
2023-09-24T11:20:36.649Z,3.80
2023-09-24T11:23:12.500Z,3.40
2023-09-24T11:25:40.454Z,3.10
2023-09-24T11:28:08.357Z,23.40
2023-09-24T11:30:54.810Z,60.60
2023-09-24T11:33:23.990Z,38.60
2023-09-24T11:35:52.968Z,35.90
2023-09-24T11:38:34.522Z,35.50
2023-09-24T11:41:06.539Z,40.80
2023-09-24T11:43:35.288Z,34.90
2023-09-24T11:46:03.669Z,7.00
2023-09-24T11:48:32.344Z,2.60
2023-09-24T11:51:03.187Z,6.70
2023-09-24T11:53:41.796Z,3.30
2023-09-24T11:56:10.234Z,3.20
2023-09-24T11:58:39.203Z,54.80
2023-09-24T12:01:10.668Z,46.20
2023-09-24T12:03:39.996Z,3.50
2023-09-24T12:06:08.674Z,3.20
2023-09-24T12:08:37.048Z,5.10
2023-09-24T12:11:04.629Z,2.90
2023-09-24T12:13:32.489Z,3.50
2023-09-24T12:16:00.184Z,3.50
2023-09-24T12:18:27.838Z,4.30
2023-09-24T12:20:55.793Z,3.40
2023-09-24T12:23:23.688Z,2.80
2023-09-24T12:25:51.280Z,2.20
2023-09-24T12:28:21.039Z,3.80
2023-09-24T12:30:48.726Z,4.20
2023-09-24T12:33:16.676Z,4.80
2023-09-24T12:35:44.591Z,3.40
2023-09-24T12:38:19.501Z,2.40
2023-09-24T12:40:48.505Z,4.10
2023-09-24T12:43:16.067Z,2.80
2023-09-24T12:45:43.965Z,4.80
2023-09-24T12:48:11.761Z,2.30
2023-09-24T12:50:39.499Z,3.00
2023-09-24T12:53:07.107Z,2.20
2023-09-24T12:55:34.702Z,3.20
2023-09-24T12:58:02.320Z,2.40
2023-09-24T13:00:30.110Z,3.80
2023-09-24T13:02:57.806Z,4.00
2023-09-24T13:05:26.145Z,2.50
2023-09-24T13:07:53.691Z,2.90
2023-09-24T13:10:21.260Z,2.60
2023-09-24T13:12:48.845Z,3.90
2023-09-24T13:15:16.625Z,4.30
2023-09-24T13:17:46.509Z,2.30
2023-09-24T13:20:15.674Z,2.90
2023-09-24T13:22:43.417Z,3.90
2023-09-24T13:25:13.731Z,2.60
2023-09-24T13:27:41.742Z,2.40
2023-09-24T13:30:09.810Z,13.20
2023-09-24T13:32:37.925Z,8.70
2023-09-24T13:35:08.428Z,5.60
2023-09-24T13:37:36.654Z,2.80
2023-09-24T13:40:05.604Z,2.90
2023-09-24T13:42:34.377Z,3.10
2023-09-24T13:45:05.064Z,1.70
2023-09-24T13:47:32.743Z,2.70
2023-09-24T13:50:00.305Z,3.20
2023-09-24T13:52:27.900Z,2.60
2023-09-24T13:54:55.524Z,4.10
2023-09-24T13:57:23.093Z,3.60
2023-09-24T13:59:52.646Z,3.70
2023-09-24T14:02:21.479Z,3.70
2023-09-24T14:04:49.240Z,2.60
2023-09-24T14:07:17.828Z,3.40
2023-09-24T14:10:04.210Z,2.80
2023-09-24T14:12:31.791Z,3.00
2023-09-24T14:14:59.383Z,3.60
2023-09-24T14:17:27.105Z,4.00
2023-09-24T14:19:55.522Z,3.10
2023-09-24T14:22:23.318Z,2.70
2023-09-24T14:24:51.308Z,4.60
2023-09-24T14:27:18.967Z,2.50
2023-09-24T14:29:46.908Z,2.70
2023-09-24T14:32:14.596Z,3.00
2023-09-24T14:34:42.156Z,3.80
2023-09-24T14:37:10.900Z,3.70
2023-09-24T14:39:38.538Z,3.40
2023-09-24T14:42:06.118Z,2.60
2023-09-24T14:44:39.180Z,2.40
2023-09-24T14:47:06.737Z,2.40
2023-09-24T14:49:34.612Z,2.80
2023-09-24T14:52:02.242Z,3.20
2023-09-24T14:54:31.239Z,2.90
2023-09-24T14:56:59.100Z,3.70
2023-09-24T14:59:26.755Z,3.70
2023-09-24T15:01:54.324Z,3.10
2023-09-24T15:04:22.054Z,3.50
2023-09-24T15:06:49.832Z,3.30
2023-09-24T15:09:17.850Z,6.20
2023-09-24T15:11:45.725Z,3.70
2023-09-24T15:14:13.358Z,4.20
2023-09-24T15:16:44.294Z,2.80
2023-09-24T15:19:11.939Z,3.40
2023-09-24T15:21:39.519Z,4.40
2023-09-24T15:24:12.341Z,4.50
2023-09-24T15:26:40.003Z,4.10
2023-09-24T15:29:07.675Z,3.70
2023-09-24T15:31:38.012Z,3.40
2023-09-24T15:34:05.718Z,4.50
2023-09-24T15:36:33.432Z,4.10
2023-09-24T15:39:01.039Z,3.30
2023-09-24T15:41:33.346Z,3.10
2023-09-24T15:44:01.824Z,3.20
2023-09-24T15:46:31.399Z,3.70
2023-09-24T15:48:59.195Z,3.70
2023-09-24T15:51:27.039Z,2.70
2023-09-24T15:53:54.906Z,3.00
2023-09-24T15:56:22.488Z,3.90
2023-09-24T15:58:50.181Z,3.30
2023-09-24T16:01:18.063Z,3.30
2023-09-24T16:03:45.861Z,4.20
2023-09-24T16:06:15.041Z,5.10
2023-09-24T16:08:42.972Z,4.10
2023-09-24T16:11:10.585Z,3.30
2023-09-24T16:13:41.182Z,4.30
2023-09-24T16:16:09.097Z,3.70
2023-09-24T16:18:36.978Z,4.70
2023-09-24T16:21:04.714Z,5.50
2023-09-24T16:23:32.316Z,6.00
2023-09-24T16:26:07.633Z,4.50
2023-09-24T16:28:35.994Z,4.80
2023-09-24T16:31:05.222Z,5.80
2023-09-24T16:33:33.336Z,5.70
2023-09-24T16:36:00.967Z,4.00
2023-09-24T16:38:28.553Z,4.30
2023-09-24T16:40:56.983Z,3.90
2023-09-24T16:43:24.925Z,3.80
2023-09-24T16:45:52.905Z,3.70
2023-09-24T16:48:20.714Z,3.40
2023-09-24T16:50:50.113Z,3.70
2023-09-24T16:53:17.833Z,3.70
2023-09-24T16:55:56.181Z,6.50
2023-09-24T16:58:27.688Z,4.30
2023-09-24T17:00:55.295Z,4.10
2023-09-24T17:03:23.035Z,4.40
2023-09-24T17:05:50.977Z,3.90
2023-09-24T17:08:18.557Z,6.40
2023-09-24T17:10:49.551Z,4.90
2023-09-24T17:13:17.138Z,3.80
2023-09-24T17:15:47.137Z,3.70
2023-09-24T17:18:15.032Z,3.90
2023-09-24T17:20:42.720Z,4.80
2023-09-24T17:23:10.259Z,3.60
2023-09-24T17:25:37.808Z,3.20
2023-09-24T17:28:05.676Z,2.80
2023-09-24T17:30:33.551Z,4.90
2023-09-24T17:33:03.773Z,4.50
2023-09-24T17:35:31.759Z,4.60
2023-09-24T17:37:59.700Z,3.30
2023-09-24T17:40:27.373Z,6.40
2023-09-24T17:42:55.007Z,5.00
2023-09-24T17:45:22.629Z,4.50
2023-09-24T17:47:50.221Z,4.20
2023-09-24T17:50:18.076Z,3.50
2023-09-24T17:52:45.914Z,4.30
2023-09-24T17:55:13.637Z,5.10
2023-09-24T17:57:41.257Z,2.90
2023-09-24T18:00:10.067Z,3.40
2023-09-24T18:02:38.882Z,4.10
2023-09-24T18:05:07.505Z,7.40
2023-09-24T18:07:35.072Z,7.40
2023-09-24T18:10:02.741Z,7.60
2023-09-24T18:12:30.331Z,5.80
2023-09-24T18:14:57.993Z,5.40
2023-09-24T18:17:25.764Z,4.70
2023-09-24T18:19:53.816Z,4.30
2023-09-24T18:22:21.378Z,5.00
2023-09-24T18:24:48.953Z,5.90
2023-09-24T18:27:16.908Z,5.60
2023-09-24T18:29:45.586Z,3.70
2023-09-24T18:32:13.131Z,5.40
2023-09-24T18:34:40.735Z,3.80
2023-09-24T18:37:08.359Z,6.00
2023-09-24T18:39:37.278Z,14.60
2023-09-24T18:42:05.021Z,8.00
2023-09-24T18:44:32.643Z,3.80
2023-09-24T18:47:00.344Z,4.30
2023-09-24T18:49:28.531Z,4.00
2023-09-24T18:51:56.117Z,4.30
2023-09-24T18:54:24.027Z,4.10
2023-09-24T18:56:51.739Z,6.80
2023-09-24T18:59:19.438Z,3.60
2023-09-24T19:01:49.355Z,4.50
2023-09-24T19:04:17.317Z,5.70
2023-09-24T19:06:45.009Z,3.80
2023-09-24T19:09:13.039Z,6.00
2023-09-24T19:11:40.645Z,5.00
2023-09-24T19:14:08.283Z,6.40
2023-09-24T19:16:35.977Z,6.10
2023-09-24T19:19:03.635Z,4.30
2023-09-24T19:21:31.238Z,5.50
2023-09-24T19:23:58.930Z,5.40
2023-09-24T19:26:26.535Z,5.10
2023-09-24T19:28:54.096Z,5.50
2023-09-24T19:31:21.753Z,6.80
2023-09-24T19:33:49.724Z,5.10
2023-09-24T19:36:18.511Z,6.50
2023-09-24T19:38:50.140Z,7.70
2023-09-24T19:41:18.253Z,13.50
2023-09-24T19:43:45.859Z,7.30
2023-09-24T19:46:13.672Z,6.70
2023-09-24T19:48:41.640Z,4.90
2023-09-24T19:51:09.422Z,5.80
2023-09-24T19:53:37.836Z,5.40
2023-09-24T19:56:09.728Z,4.60
2023-09-24T19:58:37.918Z,5.00
2023-09-24T20:01:05.734Z,6.90
2023-09-24T20:03:34.197Z,6.00
2023-09-24T20:06:06.605Z,5.30
2023-09-24T20:08:35.026Z,6.50
2023-09-24T20:11:05.312Z,5.20
2023-09-24T20:13:38.527Z,7.00
2023-09-24T20:16:06.240Z,5.50
2023-09-24T20:18:34.025Z,6.10
2023-09-24T20:21:01.841Z,5.60
2023-09-24T20:23:29.436Z,8.40
2023-09-24T20:25:57.429Z,5.90
2023-09-24T20:28:33.671Z,6.10
2023-09-24T20:31:15.335Z,4.50
2023-09-24T20:33:59.860Z,6.30
2023-09-24T20:36:30.121Z,5.10
2023-09-24T20:38:58.604Z,5.60
2023-09-24T20:41:26.367Z,5.70
2023-09-24T20:43:53.984Z,4.60
2023-09-24T20:46:23.397Z,5.30
2023-09-24T20:48:51.369Z,5.80
2023-09-24T20:51:19.241Z,5.50
2023-09-24T20:53:46.971Z,5.50
2023-09-24T20:56:14.561Z,7.40
2023-09-24T20:58:45.614Z,5.20
2023-09-24T21:01:13.429Z,7.00
2023-09-24T21:03:41.878Z,6.10
2023-09-24T21:06:09.588Z,5.40
2023-09-24T21:08:37.298Z,5.20
2023-09-24T21:11:05.041Z,7.40
2023-09-24T21:13:32.661Z,5.50
2023-09-24T21:16:01.589Z,7.30
2023-09-24T21:18:29.496Z,5.60
2023-09-24T21:20:57.285Z,6.70
2023-09-24T21:23:25.407Z,6.00
2023-09-24T21:26:06.475Z,4.10
2023-09-24T21:28:34.096Z,5.60
2023-09-24T21:31:06.119Z,5.20
2023-09-24T21:33:34.303Z,5.90
2023-09-24T21:36:15.717Z,6.50
2023-09-24T21:38:44.346Z,4.70
2023-09-24T21:41:11.955Z,6.10
2023-09-24T21:43:39.610Z,6.20
2023-09-24T21:46:07.194Z,7.00
2023-09-24T21:48:36.174Z,5.90
2023-09-24T21:51:04.824Z,4.70
2023-09-24T21:53:32.430Z,5.40
2023-09-24T21:56:01.081Z,5.50
2023-09-24T21:58:28.699Z,5.60
2023-09-24T22:00:56.466Z,6.20
2023-09-24T22:03:24.178Z,5.60
2023-09-24T22:05:53.056Z,7.40
2023-09-24T22:08:21.245Z,5.90
2023-09-24T22:10:48.834Z,10.10
2023-09-24T22:13:16.602Z,6.50
2023-09-24T22:15:44.860Z,4.60
2023-09-24T22:18:12.874Z,5.70
2023-09-24T22:20:40.583Z,6.90
2023-09-24T22:23:08.198Z,6.70
2023-09-24T22:25:35.778Z,9.20
2023-09-24T22:28:03.574Z,6.90
2023-09-24T22:30:32.316Z,6.60
2023-09-24T22:33:00.064Z,8.20
2023-09-24T22:35:27.809Z,7.20
2023-09-24T22:37:55.465Z,8.70
2023-09-24T22:40:23.039Z,6.20
2023-09-24T22:42:50.652Z,7.60
2023-09-24T22:45:19.369Z,6.20
2023-09-24T22:47:47.264Z,7.30
2023-09-24T22:50:15.137Z,5.90
2023-09-24T22:52:43.001Z,7.00
2023-09-24T22:55:12.363Z,6.20
2023-09-24T22:57:40.531Z,8.50
2023-09-24T23:00:15.472Z,8.30
2023-09-24T23:02:44.213Z,9.10
2023-09-24T23:05:14.558Z,8.30
2023-09-24T23:07:44.089Z,10.30
2023-09-24T23:10:12.624Z,9.60
2023-09-24T23:12:40.605Z,10.10
2023-09-24T23:15:08.903Z,9.60
2023-09-24T23:17:36.568Z,13.20
2023-09-24T23:20:05.568Z,9.10
2023-09-24T23:22:33.312Z,7.90
2023-09-24T23:25:00.901Z,10.20
2023-09-24T23:27:28.491Z,6.20
2023-09-24T23:29:56.059Z,7.20
2023-09-24T23:32:23.619Z,7.70
2023-09-24T23:34:52.926Z,5.20
2023-09-24T23:37:20.469Z,7.60
2023-09-24T23:39:48.071Z,4.60
2023-09-24T23:42:15.656Z,6.40
2023-09-24T23:44:43.319Z,5.20
2023-09-24T23:47:10.897Z,3.90
2023-09-24T23:49:39.742Z,4.80
2023-09-24T23:52:07.340Z,5.10
2023-09-24T23:54:35.165Z,4.80
2023-09-24T23:57:02.817Z,4.90
2023-09-24T23:59:30.532Z,7.10
